createdAt,value
2019-04-25T00:00:15.840Z,98334.47
2019-04-25T00:02:44.743Z,98328.94
2019-04-25T00:05:14.015Z,98329.20
2019-04-25T00:07:43.041Z,98369.17
2019-04-25T00:10:11.729Z,98351.04
2019-04-25T00:12:42.373Z,98352.46
2019-04-25T00:15:11.174Z,98345.23
2019-04-25T00:17:38.605Z,98351.96
2019-04-25T00:20:07.035Z,98345.35
2019-04-25T00:22:47.507Z,98350.31
2019-04-25T00:25:32.489Z,98342.70
2019-04-25T00:27:59.839Z,98340.66
2019-04-25T00:30:28.580Z,98342.20
2019-04-25T00:32:55.453Z,98353.59
2019-04-25T00:35:22.412Z,98362.59
2019-04-25T00:37:49.867Z,98372.86
2019-04-25T00:40:16.752Z,98356.52
2019-04-25T00:42:44.880Z,98371.72
2019-04-25T00:45:13.983Z,98378.30
2019-04-25T00:47:42.447Z,98389.94
2019-04-25T00:50:09.652Z,98394.09
2019-04-25T00:52:37.093Z,98399.91
2019-04-25T00:55:04.957Z,98399.02
2019-04-25T00:57:32.830Z,98404.16
2019-04-25T01:00:01.989Z,98401.95
2019-04-25T01:02:31.509Z,98396.00
2019-04-25T01:04:58.819Z,98403.82
2019-04-25T01:07:25.872Z,98408.97
2019-04-25T01:09:54.605Z,98413.62
2019-04-25T01:12:24.821Z,98416.52
2019-04-25T01:14:52.801Z,98411.05
2019-04-25T01:17:22.740Z,98396.09
2019-04-25T01:19:51.046Z,98402.27
2019-04-25T01:22:18.019Z,98399.84
2019-04-25T01:24:45.664Z,98396.77
2019-04-25T01:27:13.490Z,98394.95
2019-04-25T01:29:40.510Z,98391.50
2019-04-25T01:32:09.242Z,98392.35
2019-04-25T01:34:38.598Z,98390.95
2019-04-25T01:37:07.841Z,98399.37
2019-04-25T01:39:39.354Z,98392.62
2019-04-25T01:42:11.832Z,98399.40
2019-04-25T01:44:40.593Z,98395.05
2019-04-25T01:47:08.229Z,98390.21
2019-04-25T01:49:35.380Z,98390.33
2019-04-25T01:52:03.536Z,98382.27
2019-04-25T01:54:31.580Z,98383.66
2019-04-25T01:56:59.334Z,98387.55
2019-04-25T01:59:26.403Z,98388.00
2019-04-25T02:01:55.373Z,98394.59
2019-04-25T02:04:23.190Z,98398.05
2019-04-25T02:06:51.368Z,98411.39
2019-04-25T02:09:19.362Z,98421.59
2019-04-25T02:11:50.944Z,98427.64
2019-04-25T02:14:18.021Z,98433.94
2019-04-25T02:16:45.500Z,98443.98
2019-04-25T02:19:14.525Z,98452.10
2019-04-25T02:21:43.443Z,98443.42
2019-04-25T02:24:11.107Z,98458.22
2019-04-25T02:26:39.012Z,98456.55
2019-04-25T02:29:06.070Z,98450.71
2019-04-25T02:31:34.723Z,98450.19
2019-04-25T02:34:06.179Z,98457.44
2019-04-25T02:36:34.481Z,98466.15
2019-04-25T02:39:04.274Z,98466.36
2019-04-25T02:41:30.848Z,98458.16
2019-04-25T02:44:03.782Z,98455.27
2019-04-25T02:46:36.851Z,98455.81
2019-04-25T02:49:09.045Z,98464.44
2019-04-25T02:51:35.768Z,98475.06
2019-04-25T02:54:07.537Z,98463.13
2019-04-25T02:56:37.743Z,98466.80
2019-04-25T02:59:06.486Z,98461.53
2019-04-25T03:01:34.214Z,98466.73
2019-04-25T03:04:04.853Z,98461.95
2019-04-25T03:06:31.672Z,98451.45
2019-04-25T03:09:00.295Z,98453.05
2019-04-25T03:11:28.141Z,98451.73
2019-04-25T03:13:56.133Z,98452.10
2019-04-25T03:16:25.110Z,98443.33
2019-04-25T03:18:58.913Z,98451.53
2019-04-25T03:21:31.521Z,98447.16
2019-04-25T03:24:01.330Z,98456.18
2019-04-25T03:26:39.671Z,98455.28
2019-04-25T03:28:59.725Z,98466.38
2019-04-25T03:31:27.693Z,98477.48
2019-04-25T03:33:56.100Z,98453.48
2019-04-25T03:36:23.881Z,98456.45
2019-04-25T03:38:51.479Z,98225.09
2019-04-25T03:41:19.113Z,98465.95
2019-04-25T03:43:46.732Z,98464.89
2019-04-25T03:46:14.397Z,98474.97
2019-04-25T03:48:42.101Z,98473.91
2019-04-25T03:51:12.250Z,98485.20
2019-04-25T03:53:41.757Z,98484.23
2019-04-25T03:56:10.406Z,98485.18
2019-04-25T03:58:37.863Z,98487.76
2019-04-25T04:01:06.969Z,98480.79
2019-04-25T04:03:34.333Z,98486.10
2019-04-25T04:06:01.999Z,98489.06
2019-04-25T04:08:29.651Z,98496.95
2019-04-25T04:10:57.245Z,98497.02
2019-04-25T04:13:24.956Z,98497.98
2019-04-25T04:15:53.301Z,98498.78
2019-04-25T04:18:34.558Z,98500.48
2019-04-25T04:21:20.619Z,98501.13
2019-04-25T04:24:02.062Z,98503.47
2019-04-25T04:26:29.771Z,98501.36
2019-04-25T04:28:57.657Z,98516.15
2019-04-25T04:31:25.513Z,98522.63
2019-04-25T04:33:53.350Z,98522.23
2019-04-25T04:36:21.063Z,98523.25
2019-04-25T04:38:49.134Z,98539.75
2019-04-25T04:41:17.846Z,98545.91
2019-04-25T04:43:45.396Z,98557.12
2019-04-25T04:46:14.175Z,98550.48
2019-04-25T04:48:43.861Z,98551.88
2019-04-25T04:51:11.235Z,98548.80
2019-04-25T04:53:38.027Z,98544.94
2019-04-25T04:56:05.408Z,98546.02
2019-04-25T04:58:34.300Z,98551.50
2019-04-25T05:01:01.842Z,98558.20
2019-04-25T05:03:40.819Z,98560.44
2019-04-25T05:06:25.180Z,98566.86
2019-04-25T05:08:54.930Z,98567.09
2019-04-25T05:11:25.197Z,98571.30
2019-04-25T05:13:52.003Z,98578.90
2019-04-25T05:16:19.843Z,98579.29
2019-04-25T05:18:46.981Z,98583.81
2019-04-25T05:21:15.657Z,98584.33
2019-04-25T05:23:44.339Z,98588.11
2019-04-25T05:26:12.206Z,98588.47
2019-04-25T05:28:40.391Z,98587.88
2019-04-25T05:31:09.492Z,98578.02
2019-04-25T05:33:36.546Z,98578.03
2019-04-25T05:36:05.961Z,98572.36
2019-04-25T05:38:33.721Z,98597.51
2019-04-25T05:41:03.983Z,98369.42
2019-04-25T05:43:33.429Z,98588.08
2019-04-25T05:46:01.118Z,98587.48
2019-04-25T05:48:28.679Z,98601.17
2019-04-25T05:50:56.622Z,98598.23
2019-04-25T05:53:24.156Z,98610.45
2019-04-25T05:55:52.063Z,98611.70
2019-04-25T05:58:20.445Z,98612.92
2019-04-25T06:00:48.326Z,98616.94
2019-04-25T06:03:15.195Z,98614.02
2019-04-25T06:05:43.463Z,98617.66
2019-04-25T06:08:11.421Z,98616.64
2019-04-25T06:10:45.049Z,98615.23
2019-04-25T06:13:30.917Z,98621.31
2019-04-25T06:16:00.168Z,98617.36
2019-04-25T06:18:32.115Z,98622.70
2019-04-25T06:21:03.027Z,98618.62
2019-04-25T06:23:48.702Z,98629.36
2019-04-25T06:26:26.734Z,98627.42
2019-04-25T06:28:53.671Z,98630.60
2019-04-25T06:31:16.401Z,98629.52
2019-04-25T06:33:44.499Z,98631.33
2019-04-25T06:36:11.278Z,98631.98
2019-04-25T06:38:38.563Z,98635.19
2019-04-25T06:41:06.428Z,98648.90
2019-04-25T06:43:34.284Z,98644.12
2019-04-25T06:46:20.205Z,98639.92
2019-04-25T06:48:53.411Z,98645.80
2019-04-25T06:51:22.422Z,98640.35
2019-04-25T06:53:49.550Z,98643.00
2019-04-25T06:56:17.231Z,98638.95
2019-04-25T06:58:44.697Z,98643.79
2019-04-25T07:01:13.485Z,98642.38
2019-04-25T07:03:40.511Z,98630.38
2019-04-25T07:06:07.838Z,98639.92
2019-04-25T07:08:35.457Z,98645.27
2019-04-25T07:11:03.916Z,98640.69
2019-04-25T07:13:34.178Z,98629.46
2019-04-25T07:16:00.586Z,98633.59
2019-04-25T07:18:32.404Z,98626.90
2019-04-25T07:20:57.061Z,98629.72
2019-04-25T07:23:25.359Z,98620.27
2019-04-25T07:25:54.451Z,98623.97
2019-04-25T07:28:31.124Z,98615.00
2019-04-25T07:31:06.855Z,98635.09
2019-04-25T07:33:36.649Z,98645.69
2019-04-25T07:36:04.226Z,98642.48
2019-04-25T07:38:31.764Z,98630.68
2019-04-25T07:40:58.946Z,98633.94
2019-04-25T07:43:25.873Z,98621.14
2019-04-25T07:45:53.533Z,98624.64
2019-04-25T07:48:22.800Z,98625.64
2019-04-25T07:50:50.489Z,98621.70
2019-04-25T07:53:17.856Z,98623.49
2019-04-25T07:55:45.468Z,98619.65
2019-04-25T07:58:14.267Z,98617.39
2019-04-25T08:00:42.048Z,98628.05
2019-04-25T08:03:08.881Z,98619.94
2019-04-25T08:05:36.630Z,98615.51
2019-04-25T08:08:04.017Z,98617.39
2019-04-25T08:10:34.847Z,98622.63
2019-04-25T08:13:03.262Z,98620.09
2019-04-25T08:15:38.992Z,98621.77
2019-04-25T08:18:08.909Z,98621.16
2019-04-25T08:20:37.015Z,98610.06
2019-04-25T08:23:04.846Z,98608.44
2019-04-25T08:25:33.460Z,98429.70
2019-04-25T08:28:01.219Z,98608.67
2019-04-25T08:30:28.014Z,98598.81
2019-04-25T08:32:54.844Z,98594.22
2019-04-25T08:35:23.981Z,98596.55
2019-04-25T08:37:51.154Z,98594.92
2019-04-25T08:40:19.165Z,98598.00
2019-04-25T08:42:46.523Z,98588.99
2019-04-25T08:45:13.937Z,98592.30
2019-04-25T08:47:41.846Z,98590.92
2019-04-25T08:50:26.893Z,98587.61
2019-04-25T08:52:44.302Z,98595.26
2019-04-25T08:55:28.599Z,98595.03
2019-04-25T08:58:00.801Z,98594.05
2019-04-25T09:00:36.987Z,98602.39
2019-04-25T09:03:05.944Z,98622.02
2019-04-25T09:05:36.454Z,98610.10
2019-04-25T09:08:04.183Z,98601.70
2019-04-25T09:10:32.723Z,98595.32
2019-04-25T09:13:00.469Z,98605.03
2019-04-25T09:15:27.663Z,98612.39
2019-04-25T09:17:54.889Z,98607.61
2019-04-25T09:20:23.529Z,98619.86
2019-04-25T09:22:50.917Z,98605.45
2019-04-25T09:25:17.991Z,98608.64
2019-04-25T09:27:45.854Z,98466.11
2019-04-25T09:30:14.465Z,98609.52
2019-04-25T09:32:44.421Z,98605.34
2019-04-25T09:35:11.176Z,98602.56
2019-04-25T09:37:38.741Z,98604.67
2019-04-25T09:40:11.210Z,98597.70
2019-04-25T09:42:39.370Z,98593.78
2019-04-25T09:45:09.476Z,98596.99
2019-04-25T09:47:38.066Z,98594.77
2019-04-25T09:50:07.401Z,98591.70
2019-04-25T09:52:36.000Z,98601.41
2019-04-25T09:55:07.693Z,98588.19
2019-04-25T09:57:48.201Z,98440.31
2019-04-25T10:00:17.382Z,98589.92
2019-04-25T10:02:44.850Z,98584.30
2019-04-25T10:05:11.731Z,98582.98
2019-04-25T10:07:38.679Z,98585.69
2019-04-25T10:10:06.396Z,98274.70
2019-04-25T10:12:34.210Z,98578.86
2019-04-25T10:15:04.622Z,98584.78
2019-04-25T10:17:31.542Z,98434.82
2019-04-25T10:19:59.082Z,98574.47
2019-04-25T10:22:27.039Z,98582.81
2019-04-25T10:25:00.215Z,98582.23
2019-04-25T10:27:24.228Z,98571.66
2019-04-25T10:29:56.321Z,98579.77
2019-04-25T10:32:20.122Z,98571.74
2019-04-25T10:34:46.992Z,98565.38
2019-04-25T10:37:14.918Z,98414.91
2019-04-25T10:39:43.566Z,98571.02
2019-04-25T10:42:11.145Z,98570.48
2019-04-25T10:44:39.250Z,98568.39
2019-04-25T10:47:07.008Z,98557.59
2019-04-25T10:49:34.470Z,98562.94
2019-04-25T10:52:01.470Z,98558.72
2019-04-25T10:54:28.525Z,98557.28
2019-04-25T10:56:55.288Z,98553.69
2019-04-25T10:59:23.617Z,98545.80
2019-04-25T11:01:50.858Z,98538.11
2019-04-25T11:04:22.260Z,98535.69
2019-04-25T11:06:49.332Z,98538.39
2019-04-25T11:09:19.623Z,98526.11
2019-04-25T11:11:46.956Z,98532.36
2019-04-25T11:14:14.257Z,98513.73
2019-04-25T11:16:41.108Z,98509.66
2019-04-25T11:19:07.928Z,98519.80
2019-04-25T11:21:35.310Z,98518.11
2019-04-25T11:24:04.091Z,98512.80
2019-04-25T11:26:31.544Z,98222.60
2019-04-25T11:28:58.657Z,98518.84
2019-04-25T11:31:27.230Z,98503.62
2019-04-25T11:33:54.575Z,98503.23
2019-04-25T11:36:21.840Z,98501.68
2019-04-25T11:39:07.956Z,98515.41
2019-04-25T11:41:35.300Z,98501.84
2019-04-25T11:44:03.483Z,98492.71
2019-04-25T11:46:30.869Z,98494.86
2019-04-25T11:48:58.118Z,98487.84
2019-04-25T11:51:24.864Z,98496.15
2019-04-25T11:53:51.863Z,98483.23
2019-04-25T11:56:18.618Z,98482.84
2019-04-25T11:58:47.551Z,98482.84
2019-04-25T12:01:15.151Z,98470.78
2019-04-25T12:03:42.084Z,98327.98
2019-04-25T12:06:11.151Z,98466.19
2019-04-25T12:08:38.448Z,98461.75
2019-04-25T12:11:06.024Z,98201.47
2019-04-25T12:13:34.532Z,98458.55
2019-04-25T12:16:02.014Z,98323.64
2019-04-25T12:18:29.079Z,98444.55
2019-04-25T12:20:57.990Z,98444.19
2019-04-25T12:23:24.976Z,98434.02
2019-04-25T12:25:54.030Z,98432.38
2019-04-25T12:28:20.816Z,98418.98
2019-04-25T12:30:48.175Z,98286.84
2019-04-25T12:33:20.920Z,98418.91
2019-04-25T12:35:44.512Z,98414.64
2019-04-25T12:38:11.510Z,98399.33
2019-04-25T12:40:38.390Z,98401.30
2019-04-25T12:43:05.435Z,98394.85
2019-04-25T12:45:34.469Z,98393.47
2019-04-25T12:48:06.230Z,98390.64
2019-04-25T12:50:33.677Z,98248.64
2019-04-25T12:53:00.617Z,98388.48
2019-04-25T12:55:28.389Z,98114.60
2019-04-25T12:57:56.531Z,98379.44
2019-04-25T13:00:25.945Z,98391.38
2019-04-25T13:02:54.005Z,98381.34
2019-04-25T13:05:21.115Z,98378.59
2019-04-25T13:07:48.228Z,98384.19
2019-04-25T13:10:15.370Z,98238.46
2019-04-25T13:12:44.283Z,98375.33
2019-04-25T13:15:11.480Z,98367.73
2019-04-25T13:17:38.401Z,98368.75
2019-04-25T13:20:07.576Z,98366.78
2019-04-25T13:22:34.904Z,98369.44
2019-04-25T13:25:03.445Z,98359.80
2019-04-25T13:27:44.816Z,98366.58
2019-04-25T13:30:31.534Z,98343.15
2019-04-25T13:33:09.333Z,98351.47
2019-04-25T13:35:37.987Z,98353.33
2019-04-25T13:38:05.057Z,98351.94
2019-04-25T13:40:31.904Z,98343.55
2019-04-25T13:42:58.752Z,98339.89
2019-04-25T13:45:26.583Z,98341.32
2019-04-25T13:47:53.758Z,98206.47
2019-04-25T13:50:21.588Z,98332.37
2019-04-25T13:52:48.974Z,98321.23
2019-04-25T13:55:16.261Z,98319.12
2019-04-25T13:57:42.983Z,98324.34
2019-04-25T14:00:10.547Z,98210.42
2019-04-25T14:02:37.378Z,98168.62
2019-04-25T14:05:06.304Z,98308.48
2019-04-25T14:07:33.283Z,98305.97
2019-04-25T14:10:00.231Z,98164.31
2019-04-25T14:12:28.917Z,98297.20
2019-04-25T14:14:56.544Z,98298.32
2019-04-25T14:17:35.674Z,98285.95
2019-04-25T14:20:10.353Z,98285.45
2019-04-25T14:22:37.325Z,98286.73
2019-04-25T14:25:05.173Z,98269.87
2019-04-25T14:27:33.957Z,98277.38
2019-04-25T14:30:01.014Z,98271.70
2019-04-25T14:32:28.845Z,98267.97
2019-04-25T14:34:56.786Z,98262.36
2019-04-25T14:37:26.358Z,98263.96
2019-04-25T14:39:53.666Z,98257.27
2019-04-25T14:42:22.113Z,98264.78
2019-04-25T14:44:50.258Z,98259.59
2019-04-25T14:47:17.348Z,98263.23
2019-04-25T14:49:44.081Z,98256.98
2019-04-25T14:52:11.326Z,98247.96
2019-04-25T14:54:42.555Z,98252.78
2019-04-25T14:57:14.188Z,98240.55
2019-04-25T14:59:41.409Z,98247.96
2019-04-25T15:02:08.325Z,98240.27
2019-04-25T15:04:35.318Z,98114.64
2019-04-25T15:07:02.265Z,98095.17
2019-04-25T15:09:29.590Z,98238.81
2019-04-25T15:11:56.317Z,98237.91
2019-04-25T15:14:23.664Z,98234.83
2019-04-25T15:16:50.817Z,98245.26
2019-04-25T15:19:17.613Z,98244.20
2019-04-25T15:21:44.417Z,98231.02
2019-04-25T15:24:11.677Z,98238.84
2019-04-25T15:26:40.362Z,98243.80
2019-04-25T15:29:07.101Z,98226.42
2019-04-25T15:31:33.819Z,98227.28
2019-04-25T15:34:02.372Z,98220.62
2019-04-25T15:36:37.717Z,98215.28
2019-04-25T15:39:24.936Z,98213.28
2019-04-25T15:41:56.404Z,98215.77
2019-04-25T15:44:40.808Z,98209.87
2019-04-25T15:47:09.498Z,98213.58
2019-04-25T15:49:36.996Z,98206.43
2019-04-25T15:52:05.735Z,98203.56
2019-04-25T15:54:33.872Z,98024.99
2019-04-25T15:57:00.706Z,98212.03
2019-04-25T15:59:29.030Z,98206.34
2019-04-25T16:02:07.483Z,98207.45
2019-04-25T16:04:25.715Z,97913.04
2019-04-25T16:06:52.711Z,98212.47
2019-04-25T16:09:19.514Z,98208.41
2019-04-25T16:11:46.802Z,98206.42
2019-04-25T16:14:13.521Z,98202.36
2019-04-25T16:16:40.455Z,98195.36
2019-04-25T16:19:07.763Z,98198.38
2019-04-25T16:21:35.471Z,98204.69
2019-04-25T16:24:02.411Z,98209.77
2019-04-25T16:26:29.630Z,98203.39
2019-04-25T16:28:56.419Z,98198.70
2019-04-25T16:31:25.186Z,98201.16
2019-04-25T16:33:52.366Z,98201.20
2019-04-25T16:36:19.412Z,98205.08
2019-04-25T16:38:46.461Z,98204.44
2019-04-25T16:41:14.231Z,98202.91
2019-04-25T16:43:43.246Z,98205.62
2019-04-25T16:46:09.949Z,98207.25
2019-04-25T16:48:37.268Z,98205.88
2019-04-25T16:51:04.400Z,98210.70
2019-04-25T16:53:31.435Z,98206.64
2019-04-25T16:55:59.476Z,98204.70
2019-04-25T16:58:27.049Z,98202.31
2019-04-25T17:01:00.847Z,98209.08
2019-04-25T17:03:29.953Z,98228.54
2019-04-25T17:05:57.549Z,98227.29
2019-04-25T17:08:24.596Z,98203.07
2019-04-25T17:10:51.424Z,98207.94
2019-04-25T17:13:18.593Z,98071.38
2019-04-25T17:15:56.156Z,98201.80
2019-04-25T17:18:27.497Z,98036.23
2019-04-25T17:20:59.292Z,98205.77
2019-04-25T17:23:26.018Z,98200.07
2019-04-25T17:25:53.099Z,98210.06
2019-04-25T17:28:19.920Z,98198.67
2019-04-25T17:30:48.902Z,98192.88
2019-04-25T17:33:20.519Z,97879.44
2019-04-25T17:36:06.198Z,98196.25
2019-04-25T17:38:40.331Z,98179.41
2019-04-25T17:41:07.474Z,98187.01
2019-04-25T17:43:34.957Z,98195.98
2019-04-25T17:46:02.800Z,98192.24
2019-04-25T17:48:29.827Z,98192.80
2019-04-25T17:50:57.095Z,98199.19
2019-04-25T17:53:23.828Z,98182.67
2019-04-25T17:55:50.989Z,98189.05
2019-04-25T17:58:18.602Z,98193.50
2019-04-25T18:00:47.321Z,98196.42
2019-04-25T18:03:14.809Z,98191.55
2019-04-25T18:05:41.640Z,98187.89
2019-04-25T18:08:08.874Z,98188.66
2019-04-25T18:10:36.157Z,97958.70
2019-04-25T18:13:03.604Z,98195.09
2019-04-25T18:15:49.202Z,98190.83
2019-04-25T18:18:20.691Z,98191.59
2019-04-25T18:20:47.659Z,98198.24
2019-04-25T18:23:17.128Z,98192.52
2019-04-25T18:25:46.107Z,98191.09
2019-04-25T18:28:17.775Z,98184.67
2019-04-25T18:30:46.191Z,98183.16
2019-04-25T18:33:20.450Z,98192.95
2019-04-25T18:35:49.191Z,98011.90
2019-04-25T18:38:27.028Z,97911.23
2019-04-25T18:41:05.439Z,98187.11
2019-04-25T18:43:46.937Z,98188.59
2019-04-25T18:46:18.579Z,98189.31
2019-04-25T18:48:45.396Z,98184.58
2019-04-25T18:51:12.093Z,98189.72
2019-04-25T18:53:47.367Z,98191.34
2019-04-25T18:56:16.791Z,97928.20
2019-04-25T18:59:03.414Z,98199.55
2019-04-25T19:01:48.725Z,98190.73
2019-04-25T19:04:17.976Z,98192.27
2019-04-25T19:06:56.165Z,98186.52
2019-04-25T19:09:13.428Z,98191.92
2019-04-25T19:11:40.902Z,98190.80
2019-04-25T19:14:07.880Z,98212.02
2019-04-25T19:16:34.810Z,98191.41
2019-04-25T19:19:01.723Z,98187.09
2019-04-25T19:21:29.138Z,98180.03
2019-04-25T19:23:57.159Z,97932.02
2019-04-25T19:26:24.040Z,98187.03
2019-04-25T19:28:52.053Z,98181.45
2019-04-25T19:31:18.876Z,98181.75
2019-04-25T19:33:45.612Z,98205.86
2019-04-25T19:36:12.531Z,98190.39
2019-04-25T19:38:40.657Z,98186.34
2019-04-25T19:41:12.617Z,98191.34
2019-04-25T19:43:44.568Z,98188.61
2019-04-25T19:46:11.417Z,98019.28
2019-04-25T19:48:38.437Z,98189.53
2019-04-25T19:51:05.509Z,98210.50
2019-04-25T19:53:32.426Z,98197.23
2019-04-25T19:55:59.188Z,98194.59
2019-04-25T19:58:26.228Z,98191.84
2019-04-25T20:00:53.150Z,98192.58
2019-04-25T20:03:21.813Z,98189.27
2019-04-25T20:05:56.600Z,98200.92
2019-04-25T20:08:28.158Z,98187.02
2019-04-25T20:10:56.871Z,98185.31
2019-04-25T20:13:24.450Z,98190.27
2019-04-25T20:15:51.785Z,98191.16
2019-04-25T20:18:18.837Z,98041.66
2019-04-25T20:20:46.050Z,98176.29
2019-04-25T20:23:13.348Z,98177.50
2019-04-25T20:25:40.354Z,98173.18
2019-04-25T20:28:07.056Z,98173.55
2019-04-25T20:30:33.793Z,98164.68
2019-04-25T20:33:01.258Z,98163.14
2019-04-25T20:35:28.117Z,98179.56
2019-04-25T20:37:55.628Z,98167.34
2019-04-25T20:40:22.779Z,98167.80
2019-04-25T20:42:49.858Z,98165.80
2019-04-25T20:45:17.120Z,97982.57
2019-04-25T20:47:44.426Z,98158.06
2019-04-25T20:50:11.278Z,98164.90
2019-04-25T20:52:38.307Z,98162.91
2019-04-25T20:55:07.370Z,98161.00
2019-04-25T20:57:34.410Z,98159.19
2019-04-25T21:00:01.136Z,98156.63
2019-04-25T21:02:28.391Z,98158.19
2019-04-25T21:04:55.264Z,98155.92
2019-04-25T21:07:22.062Z,98167.87
2019-04-25T21:09:50.017Z,98184.12
2019-04-25T21:12:17.123Z,98154.16
2019-04-25T21:14:54.707Z,98167.06
2019-04-25T21:17:32.567Z,98151.92
2019-04-25T21:20:00.781Z,98153.45
2019-04-25T21:22:27.597Z,98154.66
2019-04-25T21:24:55.677Z,98149.58
2019-04-25T21:27:22.644Z,98150.22
2019-04-25T21:29:49.487Z,98146.55
2019-04-25T21:32:17.947Z,98141.06
2019-04-25T21:34:45.244Z,98138.80
2019-04-25T21:37:12.547Z,98137.09
2019-04-25T21:39:41.877Z,98137.56
2019-04-25T21:42:11.810Z,98138.85
2019-04-25T21:44:39.025Z,98134.54
2019-04-25T21:47:06.093Z,98137.35
2019-04-25T21:49:33.556Z,98133.22
2019-04-25T21:52:01.186Z,98138.97
2019-04-25T21:54:27.995Z,98132.11
2019-04-25T21:56:57.427Z,98133.84
2019-04-25T21:59:24.486Z,98129.06
2019-04-25T22:01:51.657Z,98038.00
2019-04-25T22:04:18.905Z,98124.28
2019-04-25T22:06:46.378Z,98124.28
2019-04-25T22:09:18.617Z,98121.47
2019-04-25T22:11:45.727Z,98126.98
2019-04-25T22:14:13.381Z,98125.28
2019-04-25T22:16:40.613Z,98119.56
2019-04-25T22:19:09.888Z,98123.66
2019-04-25T22:21:38.243Z,98124.22
2019-04-25T22:24:11.190Z,98122.42
2019-04-25T22:26:35.422Z,98119.75
2019-04-25T22:29:10.706Z,98126.19
2019-04-25T22:31:35.183Z,98123.52
2019-04-25T22:34:08.691Z,98119.42
2019-04-25T22:36:35.717Z,98120.53
2019-04-25T22:39:11.128Z,97806.02
2019-04-25T22:41:46.667Z,98127.09
2019-04-25T22:44:14.318Z,98110.17
2019-04-25T22:46:41.931Z,98117.42
2019-04-25T22:49:08.944Z,98116.05
2019-04-25T22:51:36.081Z,98122.78
2019-04-25T22:54:03.754Z,98116.70
2019-04-25T22:56:30.809Z,98123.77
2019-04-25T22:58:57.744Z,98125.41
2019-04-25T23:01:32.365Z,98127.38
2019-04-25T23:04:07.346Z,98127.70
2019-04-25T23:06:34.564Z,98126.55
2019-04-25T23:09:02.667Z,98135.22
2019-04-25T23:11:29.880Z,98130.05
2019-04-25T23:13:57.955Z,98128.11
2019-04-25T23:16:25.231Z,98123.91
2019-04-25T23:18:51.939Z,98123.78
2019-04-25T23:21:18.879Z,98126.78
2019-04-25T23:23:46.484Z,98126.30
2019-04-25T23:26:21.308Z,98133.52
2019-04-25T23:28:49.380Z,98118.02
2019-04-25T23:31:18.553Z,98116.30
2019-04-25T23:33:46.156Z,98144.30
2019-04-25T23:36:13.348Z,98118.47
2019-04-25T23:38:40.168Z,97909.77
2019-04-25T23:41:09.319Z,98110.41
2019-04-25T23:43:37.342Z,98123.82
2019-04-25T23:46:04.185Z,98108.17
2019-04-25T23:48:31.645Z,98113.09
2019-04-25T23:50:58.456Z,98104.47
2019-04-25T23:53:26.135Z,98111.52
2019-04-25T23:55:52.864Z,98069.23
2019-04-25T23:58:19.998Z,98115.64
